createdAt,value
2022-12-13T00:01:24.036Z,-3.80
2022-12-13T00:03:56.512Z,-3.80
2022-12-13T00:06:23.236Z,-3.80
2022-12-13T00:08:50.260Z,-3.80
2022-12-13T00:11:31.427Z,-3.80
2022-12-13T00:14:06.982Z,-3.80
2022-12-13T00:16:34.082Z,-3.80
2022-12-13T00:19:01.156Z,-3.80
2022-12-13T00:21:30.461Z,-3.80
2022-12-13T00:23:58.138Z,-3.80
2022-12-13T00:26:30.722Z,-3.80
2022-12-13T00:29:02.236Z,-3.70
2022-12-13T00:34:18.876Z,-3.60
2022-12-13T00:36:48.054Z,-3.70
2022-12-13T00:41:57.262Z,-3.70
2022-12-13T00:44:24.658Z,-3.70
2022-12-13T00:46:54.662Z,-3.60
2022-12-13T00:49:21.682Z,-3.60
2022-12-13T00:51:50.113Z,-3.60
2022-12-13T00:54:17.300Z,-3.60
2022-12-13T00:56:45.245Z,-3.60
2022-12-13T00:59:15.161Z,-3.70
2022-12-13T01:01:41.901Z,-3.60
2022-12-13T01:04:12.175Z,-3.60
2022-12-13T01:06:42.056Z,-3.60
2022-12-13T01:09:17.729Z,-3.70
2022-12-13T01:11:45.890Z,-3.70
2022-12-13T01:14:12.844Z,-3.70
2022-12-13T01:16:39.630Z,-3.70
2022-12-13T01:19:06.517Z,-3.60
2022-12-13T01:21:33.267Z,-3.60
2022-12-13T01:24:05.151Z,-3.60
2022-12-13T01:26:32.258Z,-3.70
2022-12-13T01:28:59.078Z,-3.70
2022-12-13T01:31:26.231Z,-3.70
2022-12-13T01:33:52.919Z,-3.60
2022-12-13T01:36:27.763Z,-3.60
2022-12-13T01:38:58.707Z,-3.60
2022-12-13T01:41:28.628Z,-3.60
2022-12-13T01:44:07.041Z,-3.60
2022-12-13T01:46:35.550Z,-3.50
2022-12-13T01:49:19.162Z,-3.50
2022-12-13T01:51:54.164Z,-3.50
2022-12-13T01:54:25.292Z,-3.50
2022-12-13T01:57:02.356Z,-3.60
2022-12-13T01:59:29.803Z,-3.50
2022-12-13T02:02:00.961Z,-3.50
2022-12-13T02:04:43.867Z,-3.40
2022-12-13T02:07:23.035Z,-3.40
2022-12-13T02:09:56.656Z,-3.50
2022-12-13T02:12:31.312Z,-3.50
2022-12-13T02:15:19.302Z,-3.50
2022-12-13T02:18:12.265Z,-3.50
2022-12-13T02:21:03.664Z,-3.50
2022-12-13T02:24:00.255Z,-3.40
2022-12-13T02:26:47.623Z,-3.50
2022-12-13T02:29:35.405Z,-3.50
2022-12-13T02:32:15.802Z,-3.50
2022-12-13T02:35:16.539Z,-3.50
2022-12-13T02:38:11.418Z,-3.50
2022-12-13T02:41:00.838Z,-3.50
2022-12-13T02:43:35.459Z,-3.40
2022-12-13T02:46:11.172Z,-3.40
2022-12-13T02:48:42.326Z,-3.40
2022-12-13T02:51:11.656Z,-3.40
2022-12-13T02:53:42.394Z,-3.40
2022-12-13T02:56:09.768Z,-3.40
2022-12-13T02:58:40.948Z,-3.40
2022-12-13T03:01:27.970Z,-3.40
2022-12-13T03:04:26.085Z,-3.30
2022-12-13T03:07:14.159Z,-3.30
2022-12-13T03:09:55.541Z,-3.30
2022-12-13T03:12:49.584Z,-3.30
2022-12-13T03:15:22.481Z,-3.20
2022-12-13T03:18:17.054Z,-3.20
2022-12-13T03:21:02.693Z,-3.20
2022-12-13T03:23:37.988Z,-3.20
2022-12-13T03:26:10.979Z,-3.20
2022-12-13T03:28:38.719Z,-3.10
2022-12-13T03:31:06.196Z,-3.10
2022-12-13T03:33:36.505Z,-3.10
2022-12-13T03:36:04.127Z,-3.10
2022-12-13T03:38:31.511Z,-3.00
2022-12-13T03:41:02.021Z,-3.00
2022-12-13T03:43:29.027Z,-3.00
2022-12-13T03:45:59.119Z,-3.10
2022-12-13T03:48:25.753Z,-3.10
2022-12-13T03:50:53.620Z,-3.20
2022-12-13T03:53:23.415Z,-3.20
2022-12-13T03:56:01.301Z,-3.20
2022-12-13T03:58:35.696Z,-3.20
2022-12-13T04:01:10.011Z,-3.20
2022-12-13T04:03:38.527Z,-3.20
2022-12-13T04:06:07.321Z,-3.10
2022-12-13T04:08:35.506Z,-3.20
2022-12-13T04:11:25.038Z,-3.20
2022-12-13T04:13:52.640Z,-3.20
2022-12-13T04:16:19.432Z,-3.20
2022-12-13T04:18:46.211Z,-3.20
2022-12-13T04:21:13.002Z,-3.10
2022-12-13T04:23:39.602Z,-3.10
2022-12-13T04:26:06.629Z,-3.10
2022-12-13T04:28:33.418Z,-3.10
2022-12-13T04:31:01.300Z,-3.00
2022-12-13T04:33:31.048Z,-3.00
2022-12-13T04:35:57.745Z,-3.10
2022-12-13T04:38:24.541Z,-3.00
2022-12-13T04:40:51.498Z,-3.00
2022-12-13T04:43:19.465Z,-3.00
2022-12-13T04:45:46.194Z,-2.90
2022-12-13T04:48:13.796Z,-2.90
2022-12-13T04:50:58.260Z,-2.80
2022-12-13T04:53:29.715Z,-2.80
2022-12-13T04:55:56.463Z,-2.80
2022-12-13T04:58:23.387Z,-2.80
2022-12-13T05:00:50.189Z,-2.70
2022-12-13T05:03:17.233Z,-2.70
2022-12-13T05:05:46.101Z,-2.70
2022-12-13T05:08:14.585Z,-2.70
2022-12-13T05:10:41.201Z,-2.70
2022-12-13T05:13:08.229Z,-2.60
2022-12-13T05:15:35.351Z,-2.60
2022-12-13T05:18:10.716Z,-2.60
2022-12-13T05:20:39.623Z,-2.60
2022-12-13T05:23:06.440Z,-2.60
2022-12-13T05:25:34.128Z,-2.50
2022-12-13T05:28:00.892Z,-2.50
2022-12-13T05:30:38.721Z,-2.50
2022-12-13T05:33:05.573Z,-2.40
2022-12-13T05:35:32.611Z,-2.40
2022-12-13T05:37:59.728Z,-2.40
2022-12-13T05:40:28.246Z,-2.50
2022-12-13T05:43:00.695Z,-2.40
2022-12-13T05:45:29.803Z,-2.40
2022-12-13T05:47:56.635Z,-2.40
2022-12-13T05:50:23.443Z,-2.40
2022-12-13T05:52:52.501Z,-2.30
2022-12-13T05:55:19.459Z,-2.30
2022-12-13T05:57:51.272Z,-2.30
2022-12-13T06:00:30.455Z,-2.40
2022-12-13T06:03:00.462Z,-2.30
2022-12-13T06:05:31.661Z,-2.30
2022-12-13T06:07:59.082Z,-2.30
2022-12-13T06:10:34.086Z,-2.30
2022-12-13T06:13:06.700Z,-2.30
2022-12-13T06:15:49.213Z,-2.30
2022-12-13T06:18:15.993Z,-2.30
2022-12-13T06:20:42.911Z,-2.30
2022-12-13T06:23:09.691Z,-2.30
2022-12-13T06:25:36.925Z,-2.30
2022-12-13T06:28:03.639Z,-2.20
2022-12-13T06:30:30.976Z,-2.30
2022-12-13T06:32:57.834Z,-2.30
2022-12-13T06:35:28.748Z,-2.20
2022-12-13T06:37:55.902Z,-2.20
2022-12-13T06:40:30.727Z,-2.20
2022-12-13T06:42:57.853Z,-2.20
2022-12-13T06:45:25.028Z,-2.20
2022-12-13T06:47:51.679Z,-2.20
2022-12-13T06:50:18.360Z,-2.20
2022-12-13T06:52:47.041Z,-2.20
2022-12-13T06:55:14.004Z,-2.20
2022-12-13T06:57:41.198Z,-2.10
2022-12-13T07:00:09.358Z,-2.10
2022-12-13T07:02:36.288Z,-2.10
2022-12-13T07:05:02.947Z,-2.10
2022-12-13T07:07:29.959Z,-2.10
2022-12-13T07:09:57.736Z,-2.00
2022-12-13T07:12:24.505Z,-2.00
2022-12-13T07:14:51.211Z,-2.00
2022-12-13T07:17:33.987Z,-2.00
2022-12-13T07:20:10.350Z,-2.00
2022-12-13T07:22:43.260Z,-1.90
2022-12-13T07:25:27.820Z,-1.90
2022-12-13T07:28:02.061Z,-1.90
2022-12-13T07:30:33.591Z,-1.90
2022-12-13T07:33:04.843Z,-1.80
2022-12-13T07:35:37.534Z,-1.80
2022-12-13T07:38:05.978Z,-1.80
2022-12-13T07:40:37.632Z,-1.80
2022-12-13T07:43:05.577Z,-1.80
2022-12-13T07:45:32.958Z,-1.80
2022-12-13T07:48:03.686Z,-1.80
2022-12-13T07:50:37.413Z,-1.80
2022-12-13T07:53:08.634Z,-1.70
2022-12-13T07:55:36.627Z,-1.70
2022-12-13T07:58:05.472Z,-1.60
2022-12-13T08:00:32.318Z,-1.60
2022-12-13T08:03:01.492Z,-1.60
2022-12-13T08:05:28.948Z,-1.60
2022-12-13T08:08:07.165Z,-1.60
2022-12-13T08:10:33.823Z,-1.60
2022-12-13T08:13:02.773Z,-1.60
2022-12-13T08:15:29.599Z,-1.50
2022-12-13T08:17:57.255Z,-1.50
2022-12-13T08:20:24.039Z,-1.50
2022-12-13T08:23:02.273Z,-1.50
2022-12-13T08:25:30.683Z,-1.50
2022-12-13T08:28:01.611Z,-1.40
2022-12-13T08:30:30.424Z,-1.40
2022-12-13T08:32:57.561Z,-1.40
2022-12-13T08:35:33.712Z,-1.40
2022-12-13T08:38:01.256Z,-1.30
2022-12-13T08:40:28.104Z,-1.30
2022-12-13T08:42:58.758Z,-1.30
2022-12-13T08:45:27.052Z,-1.30
2022-12-13T08:47:57.042Z,-1.20
2022-12-13T08:50:24.053Z,-1.20
2022-12-13T08:52:51.712Z,-1.20
2022-12-13T08:55:23.773Z,-1.20
2022-12-13T08:57:58.886Z,-1.20
2022-12-13T09:00:27.872Z,-1.20
2022-12-13T09:02:57.877Z,-1.20
2022-12-13T09:05:34.231Z,-1.10
2022-12-13T09:08:02.746Z,-1.10
2022-12-13T09:10:29.880Z,-1.10
2022-12-13T09:13:11.687Z,-1.00
2022-12-13T09:15:45.891Z,-0.90
2022-12-13T09:18:15.265Z,-0.90
2022-12-13T09:20:50.716Z,-0.80
2022-12-13T09:23:24.119Z,-0.80
2022-12-13T09:26:05.605Z,-0.70
2022-12-13T09:28:34.682Z,-0.70
2022-12-13T09:31:01.394Z,-0.70
2022-12-13T09:33:30.758Z,-0.60
2022-12-13T09:35:58.171Z,-0.60
2022-12-13T09:38:28.213Z,-0.50
2022-12-13T09:40:58.449Z,-0.40
2022-12-13T09:43:32.751Z,-0.40
2022-12-13T09:46:13.490Z,-0.40
2022-12-13T09:48:53.057Z,-0.40
2022-12-13T09:51:43.170Z,-0.30
2022-12-13T09:54:18.963Z,-0.30
2022-12-13T09:56:50.744Z,-0.20
2022-12-13T09:59:28.870Z,-0.20
2022-12-13T10:01:57.367Z,-0.20
2022-12-13T10:04:24.430Z,-0.10
2022-12-13T10:06:54.469Z,-0.10
2022-12-13T10:09:21.302Z,-0.10
2022-12-13T10:11:51.114Z,0.00
2022-12-13T10:14:24.802Z,0.00
2022-12-13T10:16:54.737Z,0.10
2022-12-13T10:19:30.242Z,0.20
2022-12-13T10:22:01.099Z,0.20
2022-12-13T10:24:47.025Z,0.20
2022-12-13T10:27:27.434Z,0.20
2022-12-13T10:29:59.889Z,0.20
2022-12-13T10:32:27.589Z,0.20
2022-12-13T10:34:57.272Z,0.20
2022-12-13T10:37:23.998Z,0.20
2022-12-13T10:39:50.719Z,0.20
2022-12-13T10:42:23.573Z,0.20
2022-12-13T10:45:23.545Z,0.20
2022-12-13T10:47:50.777Z,0.20
2022-12-13T10:50:29.168Z,0.20
2022-12-13T10:52:57.671Z,0.30
2022-12-13T10:55:35.388Z,0.30
2022-12-13T10:58:19.273Z,0.30
2022-12-13T11:00:47.361Z,0.40
2022-12-13T11:03:30.084Z,0.40
2022-12-13T11:06:13.840Z,0.40
2022-12-13T11:08:41.459Z,0.50
2022-12-13T11:11:09.686Z,0.50
2022-12-13T11:13:45.223Z,0.50
2022-12-13T11:16:32.560Z,0.60
2022-12-13T11:19:16.494Z,0.60
2022-12-13T11:21:48.965Z,0.60
2022-12-13T11:24:28.584Z,0.70
2022-12-13T11:27:05.747Z,0.70
2022-12-13T11:30:00.669Z,0.70
2022-12-13T11:32:49.629Z,0.60
2022-12-13T11:35:21.627Z,0.60
2022-12-13T11:38:10.762Z,0.70
2022-12-13T11:40:49.823Z,0.80
2022-12-13T11:43:46.075Z,0.70
2022-12-13T11:46:47.995Z,0.80
2022-12-13T11:49:42.255Z,0.80
2022-12-13T11:52:34.544Z,0.90
2022-12-13T11:55:08.775Z,0.90
2022-12-13T11:57:41.676Z,0.90
2022-12-13T12:00:34.535Z,1.00
2022-12-13T12:03:16.487Z,0.90
2022-12-13T12:05:58.389Z,0.80
2022-12-13T12:08:51.713Z,0.80
2022-12-13T12:12:02.176Z,0.80
2022-12-13T12:14:47.878Z,0.80
2022-12-13T12:17:23.790Z,0.80
2022-12-13T12:19:54.713Z,0.80
2022-12-13T12:22:39.281Z,0.90
2022-12-13T12:25:25.917Z,0.90
2022-12-13T12:28:34.942Z,1.00
2022-12-13T12:31:50.992Z,1.00
2022-12-13T12:34:45.311Z,1.00
2022-12-13T12:37:26.866Z,1.10
2022-12-13T12:40:08.853Z,1.20
2022-12-13T12:43:26.991Z,1.20
2022-12-13T12:46:21.948Z,1.20
2022-12-13T12:49:13.944Z,1.20
2022-12-13T12:52:07.151Z,1.30
2022-12-13T12:54:36.920Z,1.30
2022-12-13T12:57:32.510Z,1.20
2022-12-13T13:00:19.635Z,1.30
2022-12-13T13:02:53.624Z,1.40
2022-12-13T13:05:36.028Z,1.30
2022-12-13T13:08:11.900Z,1.30
2022-12-13T13:10:41.007Z,1.30
2022-12-13T13:13:47.098Z,1.20
2022-12-13T13:16:35.707Z,1.20
2022-12-13T13:19:31.311Z,1.30
2022-12-13T13:22:01.516Z,1.30
2022-12-13T13:24:32.368Z,1.30
2022-12-13T13:27:28.170Z,1.30
2022-12-13T13:30:25.509Z,1.40
2022-12-13T13:32:58.079Z,1.40
2022-12-13T13:35:33.655Z,1.40
2022-12-13T13:38:21.991Z,1.40
2022-12-13T13:40:48.959Z,1.40
2022-12-13T13:43:17.360Z,1.40
2022-12-13T13:45:50.392Z,1.40
2022-12-13T13:48:40.990Z,1.40
2022-12-13T13:51:27.491Z,1.40
2022-12-13T13:54:16.368Z,1.30
2022-12-13T13:57:04.518Z,1.30
2022-12-13T13:59:49.721Z,1.30
2022-12-13T14:02:50.373Z,1.40
2022-12-13T14:05:20.005Z,1.40
2022-12-13T14:08:07.564Z,1.30
2022-12-13T14:10:42.362Z,1.20
2022-12-13T14:13:47.116Z,1.20
2022-12-13T14:16:20.874Z,1.20
2022-12-13T14:19:04.704Z,1.20
2022-12-13T14:22:13.654Z,1.20
2022-12-13T14:25:12.428Z,1.20
2022-12-13T14:27:47.631Z,1.20
2022-12-13T14:30:28.141Z,1.20
2022-12-13T14:32:56.975Z,1.20
2022-12-13T14:35:28.409Z,1.00
2022-12-13T14:38:00.429Z,1.00
2022-12-13T14:40:36.209Z,1.10
2022-12-13T14:43:03.858Z,1.10
2022-12-13T14:45:37.017Z,1.10
2022-12-13T14:48:13.594Z,1.10
2022-12-13T14:50:43.698Z,1.20
2022-12-13T14:53:37.656Z,1.10
2022-12-13T14:56:08.026Z,1.10
2022-12-13T14:58:36.890Z,1.00
2022-12-13T15:01:23.747Z,0.90
2022-12-13T15:04:21.204Z,1.00
2022-12-13T15:07:02.624Z,0.90
2022-12-13T15:09:30.595Z,0.90
2022-12-13T15:12:14.624Z,0.90
2022-12-13T15:14:49.564Z,0.90
2022-12-13T15:17:38.177Z,0.90
2022-12-13T15:20:23.892Z,0.90
2022-12-13T15:23:01.954Z,0.90
2022-12-13T15:25:29.392Z,0.90
2022-12-13T15:27:56.959Z,0.80
2022-12-13T15:30:30.779Z,0.70
2022-12-13T15:33:34.139Z,0.70
2022-12-13T15:36:07.848Z,0.60
2022-12-13T15:38:57.685Z,0.70
2022-12-13T15:41:46.186Z,0.60
2022-12-13T15:44:19.655Z,0.60
2022-12-13T15:46:48.980Z,0.60
2022-12-13T15:49:44.763Z,0.60
2022-12-13T15:52:14.562Z,0.50
2022-12-13T15:54:41.985Z,0.40
2022-12-13T15:57:14.904Z,0.40
2022-12-13T15:59:43.124Z,0.30
2022-12-13T16:02:18.655Z,0.30
2022-12-13T16:04:45.633Z,0.20
2022-12-13T16:07:29.555Z,0.20
2022-12-13T16:09:57.580Z,0.20
2022-12-13T16:12:29.715Z,0.10
2022-12-13T16:15:28.827Z,0.10
2022-12-13T16:18:26.519Z,0.00
2022-12-13T16:20:54.186Z,-0.10
2022-12-13T16:23:27.411Z,-0.20
2022-12-13T16:25:54.729Z,-0.20
2022-12-13T16:28:26.224Z,-0.20
2022-12-13T16:30:52.985Z,-0.30
2022-12-13T16:33:30.352Z,-0.30
2022-12-13T16:35:57.202Z,-0.30
2022-12-13T16:38:26.390Z,-0.40
2022-12-13T16:40:56.290Z,-0.40
2022-12-13T16:43:32.842Z,-0.50
2022-12-13T16:47:17.483Z,-0.50
2022-12-13T16:48:51.320Z,-0.50
2022-12-13T16:51:18.327Z,-0.50
2022-12-13T16:53:45.735Z,-0.50
2022-12-13T16:56:14.764Z,-0.50
2022-12-13T16:58:49.473Z,-0.50
2022-12-13T17:01:20.187Z,-0.50
2022-12-13T17:03:47.307Z,-0.50
2022-12-13T17:06:15.878Z,-0.50
2022-12-13T17:08:42.471Z,-0.50
2022-12-13T17:11:13.311Z,-0.50
2022-12-13T17:13:44.894Z,-0.50
2022-12-13T17:16:11.912Z,-0.50
2022-12-13T17:18:41.581Z,-0.50
2022-12-13T17:21:09.440Z,-0.50
2022-12-13T17:23:36.462Z,-0.50
2022-12-13T17:26:07.901Z,-0.50
2022-12-13T17:28:35.092Z,-0.60
2022-12-13T17:31:12.238Z,-0.60
2022-12-13T17:33:39.483Z,-0.60
2022-12-13T17:36:08.059Z,-0.60
2022-12-13T17:38:35.305Z,-0.60
2022-12-13T17:41:02.830Z,-0.70
2022-12-13T17:43:34.880Z,-0.70
2022-12-13T17:46:08.410Z,-0.70
2022-12-13T17:48:40.404Z,-0.60
2022-12-13T17:51:12.840Z,-0.60
2022-12-13T17:53:40.908Z,-0.60
2022-12-13T17:56:12.055Z,-0.50
2022-12-13T17:58:38.998Z,-0.50
2022-12-13T18:01:22.270Z,-0.50
2022-12-13T18:03:51.558Z,-0.40
2022-12-13T18:06:18.536Z,-0.50
2022-12-13T18:08:46.787Z,-0.50
2022-12-13T18:14:07.337Z,-0.50
2022-12-13T18:16:37.591Z,-0.50
2022-12-13T18:19:07.208Z,-0.50
2022-12-13T18:21:35.519Z,-0.50
2022-12-13T18:24:02.458Z,-0.60
2022-12-13T18:26:29.297Z,-0.60
2022-12-13T18:28:55.949Z,-0.60
2022-12-13T18:31:24.733Z,-0.60
2022-12-13T18:33:53.833Z,-0.70
2022-12-13T18:36:23.216Z,-0.60
2022-12-13T18:38:50.026Z,-0.60
2022-12-13T18:41:19.344Z,-0.70
2022-12-13T18:43:46.363Z,-0.70
2022-12-13T18:46:14.723Z,-0.60
2022-12-13T18:48:41.770Z,-0.60
2022-12-13T18:51:09.863Z,-0.60
2022-12-13T18:53:37.643Z,-0.60
2022-12-13T18:56:08.766Z,-0.60
2022-12-13T18:58:37.993Z,-0.60
2022-12-13T19:01:05.579Z,-0.60
2022-12-13T19:03:33.204Z,-0.60
2022-12-13T19:06:00.947Z,-0.70
2022-12-13T19:08:28.757Z,-0.70
2022-12-13T19:10:57.279Z,-0.70
2022-12-13T19:13:25.538Z,-0.80
2022-12-13T19:15:54.202Z,-0.80
2022-12-13T19:18:21.785Z,-0.90
2022-12-13T19:20:50.400Z,-0.90
2022-12-13T19:23:17.964Z,-0.80
2022-12-13T19:25:45.444Z,-0.80
2022-12-13T19:28:15.637Z,-0.80
2022-12-13T19:30:44.792Z,-0.80
2022-12-13T19:33:12.230Z,-0.80
2022-12-13T19:35:40.941Z,-0.90
2022-12-13T19:38:08.371Z,-0.90
2022-12-13T19:40:37.760Z,-0.90
2022-12-13T19:43:04.287Z,-1.00
2022-12-13T19:45:30.989Z,-1.10
2022-12-13T19:47:57.603Z,-1.10
2022-12-13T19:50:24.272Z,-1.10
2022-12-13T19:52:50.784Z,-1.10
2022-12-13T19:55:17.512Z,-1.20
2022-12-13T19:57:44.039Z,-1.20
2022-12-13T20:00:11.509Z,-1.20
2022-12-13T20:02:38.356Z,-1.20
2022-12-13T20:05:05.752Z,-1.30
2022-12-13T20:07:32.284Z,-1.30
2022-12-13T20:10:00.904Z,-1.20
2022-12-13T20:12:29.278Z,-1.20
2022-12-13T20:14:56.051Z,-1.20
2022-12-13T20:17:22.888Z,-1.30
2022-12-13T20:19:49.396Z,-1.30
2022-12-13T20:22:16.009Z,-1.30
2022-12-13T20:24:43.280Z,-1.30
2022-12-13T20:27:11.495Z,-1.30
2022-12-13T20:29:38.167Z,-1.30
2022-12-13T20:32:04.881Z,-1.00
2022-12-13T20:34:31.650Z,-0.10
2022-12-13T20:36:58.401Z,0.00
2022-12-13T20:39:25.558Z,-0.30
2022-12-13T20:41:52.115Z,-0.60
2022-12-13T20:44:18.877Z,-0.80
2022-12-13T20:46:45.763Z,-0.80
2022-12-13T20:49:12.495Z,-0.90
2022-12-13T20:51:41.259Z,-1.00
2022-12-13T20:54:08.742Z,-1.10
2022-12-13T20:56:37.636Z,-1.10
2022-12-13T20:59:06.460Z,-1.20
2022-12-13T21:01:35.726Z,-1.30
2022-12-13T21:04:04.911Z,-1.30
2022-12-13T21:06:33.619Z,-1.30
2022-12-13T21:09:02.899Z,-1.30
2022-12-13T21:11:38.425Z,-1.40
2022-12-13T21:14:33.426Z,-1.50
2022-12-13T21:17:04.937Z,-1.60
2022-12-13T21:19:38.941Z,-1.60
2022-12-13T21:22:06.901Z,-1.60
2022-12-13T21:24:33.738Z,-1.60
2022-12-13T21:27:00.518Z,-1.70
2022-12-13T21:29:27.427Z,-1.70
2022-12-13T21:31:54.767Z,-1.70
2022-12-13T21:34:22.335Z,-1.70
2022-12-13T21:36:52.267Z,-1.80
2022-12-13T21:39:22.736Z,-1.80
2022-12-13T21:41:50.072Z,-1.80
2022-12-13T21:44:17.737Z,-1.80
2022-12-13T21:49:31.075Z,-1.70
2022-12-13T21:51:57.657Z,-1.70
2022-12-13T21:54:24.327Z,-1.70
2022-12-13T21:57:09.616Z,-1.70
2022-12-13T21:59:36.191Z,-1.60
2022-12-13T22:02:13.279Z,-1.60
2022-12-13T22:04:48.912Z,-1.70
2022-12-13T22:07:21.786Z,-1.60
2022-12-13T22:09:49.118Z,-1.60
2022-12-13T22:12:25.111Z,-1.70
2022-12-13T22:14:52.759Z,-1.70
2022-12-13T22:17:19.937Z,-1.70
2022-12-13T22:19:48.486Z,-1.70
2022-12-13T22:22:17.262Z,-1.70
2022-12-13T22:24:48.436Z,-1.70
2022-12-13T22:27:23.742Z,-1.70
2022-12-13T22:29:52.580Z,-1.80
2022-12-13T22:32:20.164Z,-1.80
2022-12-13T22:34:48.064Z,-1.80
2022-12-13T22:37:15.082Z,-1.80
2022-12-13T22:39:42.232Z,-1.90
2022-12-13T22:42:09.231Z,-1.90
2022-12-13T22:44:35.930Z,-1.90
2022-12-13T22:47:02.814Z,-1.90
2022-12-13T22:49:29.441Z,-2.00
2022-12-13T22:51:56.180Z,-2.00
2022-12-13T22:54:22.958Z,-2.00
2022-12-13T22:56:52.434Z,-2.00
2022-12-13T22:59:19.238Z,-2.00
2022-12-13T23:01:47.477Z,-2.00
2022-12-13T23:04:14.694Z,-1.90
2022-12-13T23:06:41.639Z,-1.90
2022-12-13T23:09:12.017Z,-2.00
2022-12-13T23:11:57.775Z,-2.00
2022-12-13T23:14:30.343Z,-2.00
2022-12-13T23:16:57.044Z,-2.00
2022-12-13T23:19:53.867Z,-2.00
2022-12-13T23:22:10.616Z,-2.10
2022-12-13T23:24:37.406Z,-2.00
2022-12-13T23:27:04.019Z,-2.00
2022-12-13T23:29:31.400Z,-2.10
2022-12-13T23:31:58.133Z,-2.10
2022-12-13T23:34:24.819Z,-2.10
2022-12-13T23:36:51.578Z,-2.20
2022-12-13T23:39:18.518Z,-2.20
2022-12-13T23:41:45.136Z,-2.20
2022-12-13T23:44:11.991Z,-2.20
2022-12-13T23:46:38.773Z,-2.30
2022-12-13T23:49:06.368Z,-2.30
2022-12-13T23:51:34.238Z,-2.30
2022-12-13T23:54:01.267Z,-2.30
2022-12-13T23:56:29.129Z,-2.30
2022-12-13T23:58:56.161Z,-2.30
